Thursday, January 18, 2018, 8:57 PM EST
Back to Local

KART, Watertown International Airport

Location: Dexter, NY, United States Lat: 43.983
Local Time: 8:57 PM EST ( 1:57 GMT) Lon: -76.033
Time Zone: US/Eastern Elev: 324 ft

Show me the last for .
Show Coded

Time T Td Feel RH Dir Speed Gust Alt SLP Vis Weather Sky Remarks
2018-01-18 19:56 26 24 17 92 240° 9 - 29.97 29.99 4 BR BKN015 OVC022 1-hr Precip Total: Trace
2018-01-18 19:21 26 24 12 92 240° 12 20 29.98 - 3 BR OVC013 1-hr Precip Total: Trace
2018-01-18 19:14 26 24 12 92 240° 12 20 29.98 - 2 -SN BR OVC013 1-hr Precip Total: Trace
2018-01-18 18:56 26 23 12 87 230° 14 22 29.98 30.01 3 -SN BR OVC013 1-hr Precip Total: Trace
6-hr Precip Total (7pm): 0.00"
6-hr Min Temp (7pm): 25.0°F
6-hr Max Temp (7pm): 27.0°F
2018-01-18 18:12 25 23 16 92 230° 9 - 29.98 - 3 -SN BR BKN013 OVC020 1-hr Precip Total: Trace
2018-01-18 18:05 25 23 11 92 230° 14 20 29.97 - 2 -SN BR SCT010 OVC018 1-hr Precip Total: Trace
2018-01-18 17:56 25 23 13 92 230° 14 - 29.97 30.00 2 -SN BR SCT010 BKN014 OVC018 1-hr Precip Total: Trace
2018-01-18 17:45 25 23 13 92 240° 15 - 29.97 - 1 -SN BR BKN010 BKN015 OVC023 1-hr Precip Total: Trace
2018-01-18 17:33 25 23 13 92 240° 15 - 29.97 - 1 -SN BR BKN008 OVC023 1-hr Precip Total: Trace
2018-01-18 16:56 25 23 9 92 240° 16 25 29.97 29.99 1 -SN BR FEW008 OVC025 1-hr Precip Total: Trace
2018-01-18 15:56 25 23 10 92 250° 14 24 29.98 30.00 0 -SN BR FEW009 OVC016 1-hr Precip Total: Trace
6-hr Precip Total (4pm): 0.00"
2018-01-18 15:26 26 24 14 92 240° 15 - 29.97 - 0 -SN FZFG FEW009 OVC016 1-hr Precip Total: Trace
2018-01-18 15:09 26 24 11 92 250° 15 24 29.97 - 0 -SN BR OVC014 1-hr Precip Total: Trace
2018-01-18 14:56 26 23 12 87 250° 15 20 29.97 29.99 1 -SN BR OVC015 1-hr Precip Total: Trace
2018-01-18 14:52 27 23 13 86 250° 14 20 29.97 - 1 -SN BR OVC015 1-hr Precip Total: Trace
2018-01-18 14:25 27 23 17 84 250° 10 - 29.97 - 4 BR BKN016 OVC021 1-hr Precip Total: Trace
2018-01-18 14:14 27 23 16 84 260° 14 - 29.97 - 2 -SN BR BKN016 BKN022 OVC040 1-hr Precip Total: Trace
2018-01-18 13:56 27 23 16 84 260° 14 - 29.97 29.99 4 BR BKN016 BKN022 OVC041 1-hr Precip Total: Trace
2018-01-18 13:33 26 23 16 87 260° 10 - 29.97 - 4 BR BKN015 OVC022 1-hr Precip Total: Trace
2018-01-18 13:19 26 22 12 84 260° 13 21 29.97 - 2 -SN BR BKN015 OVC020 1-hr Precip Total: Trace
2018-01-18 13:08 26 22 16 84 260° 12 - 29.97 - 1 -SN BR OVC017 1-hr Precip Total: Trace
2018-01-18 12:56 26 23 16 87 260° 12 - 29.97 29.99 0 -SN FZFG BKN014 OVC020 Wind Shift: 34 min
1-hr Precip Total: Trace
6-hr Precip Total (1pm): 0.00"
6-hr Min Temp (1pm): 18.0°F
6-hr Max Temp (1pm): 26.1°F
2018-01-18 12:50 27 23 16 86 260° 12 - 29.98 - 0 -SN FZFG BKN014 OVC020 Wind Shift: 34 min
1-hr Precip Total: Trace
2018-01-18 12:43 26 23 16 87 260° 12 - 29.98 - 0 SN FZFG OVC016 1-hr Precip Total: Trace
2018-01-18 12:33 24 21 10 87 250° 10 20 29.98 - 1 -SN BR OVC016 1-hr Precip Total: Trace
2018-01-18 12:12 20 18 11 91 170° 7 - 29.99 - 0 -SN BR OVC016 1-hr Precip Total: Trace
2018-01-18 11:56 20 17 11 88 170° 7 - 30.00 30.02 1 -SN BR OVC017 1-hr Precip Total: Trace
2018-01-18 11:49 20 18 11 91 170° 7 - 29.99 - 1 -SN BR OVC017 1-hr Precip Total: Trace
2018-01-18 11:27 20 17 12 88 190° 6 - 30.00 - 2 BR OVC017 None
2018-01-18 10:56 19 16 7 87 160° 10 - 30.01 30.03 3 BR FEW008 OVC018 1-hr Precip Total: Trace
2018-01-18 10:46 19 17 8 91 160° 9 - 30.01 - 2 BR FEW008 OVC018 1-hr Precip Total: Trace
2018-01-18 10:43 19 17 9 91 170° 8 - 30.01 - 1 -SN BR FEW008 BKN014 OVC020 1-hr Precip Total: Trace
2018-01-18 10:32 19 17 10 91 170° 7 - 30.01 - 1 -SN BR BKN008 OVC016 1-hr Precip Total: Trace
2018-01-18 10:10 19 17 10 91 170° 7 - 30.01 - 0 -SN FZFG OVC006 1-hr Precip Total: Trace
2018-01-18 09:56 19 17 11 91 180° 6 - 30.01 30.03 0 SN FZFG OVC007 1-hr Precip Total: Trace
6-hr Precip Total (10am): 0.00"
2018-01-18 09:48 19 17 10 91 190° 7 - 30.01 - 0 SN FZFG OVC008 1-hr Precip Total: Trace
2018-01-18 09:36 18 16 10 91 Variable 6 - 30.01 - 0 -SN FZFG BKN008 OVC012 1-hr Precip Total: Trace
2018-01-18 09:07 18 15 7 88 160° 9 - 30.00 - 0 -SN FZFG OVC011 1-hr Precip Total: Trace
2018-01-18 09:03 18 15 8 88 170° 8 - 30.00 - 0 SN FZFG BKN009 OVC014 1-hr Precip Total: Trace
2018-01-18 08:56 18 15 8 88 200° 8 - 30.00 30.03 0 SN FZFG BKN010 OVC016 1-hr Precip Total: Trace
2018-01-18 08:49 18 15 8 88 190° 8 - 30.00 - 0 -SN FZFG BKN010 OVC017 1-hr Precip Total: Trace
2018-01-18 08:31 19 15 10 84 170° 7 - 30.00 - 0 -SN BR OVC017 1-hr Precip Total: Trace
2018-01-18 08:17 18 14 8 84 200° 8 - 30.00 - 1 -SN BR OVC017 1-hr Precip Total: Trace
2018-01-18 07:56 18 14 2 84 190° 10 18 29.99 30.02 2 -SN BR OVC019 1-hr Precip Total: Trace
2018-01-18 07:48 18 14 1 84 180° 8 21 29.99 - 1 -SN BR OVC019 1-hr Precip Total: Trace
2018-01-18 07:33 18 13 5 80 190° 13 - 29.99 - 2 -SN OVC019 1-hr Precip Total: Trace
2018-01-18 06:56 18 13 5 80 190° 12 - 29.99 30.02 3 -SN OVC018 1-hr Precip Total: Trace
6-hr Precip Total (7am): 0.00"
24-hr Precip Total (7am): 0.02"
6-hr Min Temp (7am): 18.0°F
6-hr Max Temp (7am): 24.1°F
2018-01-18 05:56 19 13 7 76 180° 10 - 30.00 30.02 5 HZ OVC020 None
2018-01-18 04:56 24 19 10 80 220° 15 20 30.01 30.03 7 OVC022 None
2018-01-18 03:56 24 20 9 83 230° 15 23 30.03 30.05 7 OVC021 None
2018-01-18 02:56 19 14 7 80 200° 10 - 30.04 30.07 9 OVC018 None
2018-01-18 01:56 18 14 6 84 190° 10 - 30.05 30.07 8 OVC020 None
2018-01-18 00:56 19 15 8 84 200° 9 - 30.05 30.08 8 OVC022 6-hr Precip Total (1am): 0.00"
6-hr Min Temp (1am): 19.0°F
6-hr Max Temp (1am): 21.9°F
2018-01-17 23:56 19 15 7 84 200° 10 - 30.07 30.09 8 OVC019 24-hr Min Temp (12am): 12.0°F
24-hr Max Temp (12am): 21.9°F
2018-01-17 22:56 19 15 8 84 190° 9 - 30.10 30.12 7 OVC019 1-hr Precip Total: Trace
2018-01-17 21:56 19 15 7 84 200° 12 - 30.12 30.15 3 -SN BR OVC019 1-hr Precip Total: Trace
6-hr Precip Total (10pm): 0.00"
2018-01-17 21:26 19 14 3 80 200° 10 21 30.13 - 3 -SN OVC019 1-hr Precip Total: Trace

Support USWX by starting your Amazon purchase here.